Kimberling City, Missouri
Current Conditions -  °F | °C
As of 2:15 PM on Wednesday 26 Nov 2014 (Local Time) from KFWB Reporting Station
Overcast Overcast  
Wind Chill: 42°   Ceiling: 5000
Heat Index: 46°   Visibility: 10mi
Dew Point: 27°   Wind: 9mph
Humidity: 46%   Direction: 310°NW
Pressure: 30.05"   Gusts: 22mph
Location:  36.63°N, 93.42°W
Report Text: KFWB 262015Z AUTO 31008G19KT 10SM BKN050 OVC065 08/M03 A3005 RMK AO2
Loading
Personal Weather Stations






























Interactive Weather Map New forecast layout! Learn more

10-Day Weather Forecast

Advertisements
Track Severe Weather on mobile